Time;durP1;ratioP1;P1;durP2;ratioP2;P2;SDS_P1;SDS_P2;PMS_P1;PMS_P2;Temp;Humidity;BMP_temperature;BMP_pressure;BME280_temperature;BME280_humidity;BME280_pressure;Samples;Min_cycle;Max_cycle;Signal;HPM_P1;HPM_P2
2023/01/31 00:00:53;;;;;;;9.47;9.17;;;3.50;99.90;;;;;;6172145;23;20283;-84
2023/01/31 00:03:23;;;;;;;9.70;9.40;;;3.40;99.90;;;;;;6171203;23;20250;-84
2023/01/31 00:05:52;;;;;;;9.73;9.43;;;3.40;99.90;;;;;;6172930;23;20204;-85
2023/01/31 00:08:25;;;;;;;9.90;9.60;;;3.40;99.90;;;;;;6172006;23;20207;-84
2023/01/31 00:10:55;;;;;;;9.50;9.20;;;3.30;99.90;;;;;;6172233;23;20238;-84
2023/01/31 00:13:23;;;;;;;9.43;9.13;;;3.30;99.90;;;;;;6171220;23;20199;-85
2023/01/31 00:15:50;;;;;;;9.47;9.17;;;3.30;99.90;;;;;;6163683;23;20291;-85
2023/01/31 00:18:19;;;;;;;9.40;9.10;;;3.30;99.90;;;;;;6163643;23;20197;-84
2023/01/31 00:20:50;;;;;;;9.60;9.30;;;3.20;99.90;;;;;;6165185;23;20220;-83
2023/01/31 00:23:19;;;;;;;9.60;9.30;;;3.20;99.90;;;;;;6172280;23;20228;-83
2023/01/31 00:25:50;;;;;;;9.30;9.00;;;3.10;99.90;;;;;;6171133;23;20204;-83
2023/01/31 00:28:18;;;;;;;9.50;9.20;;;3.10;99.90;;;;;;6171465;23;20193;-83
2023/01/31 00:30:47;;;;;;;9.60;9.30;;;3.10;99.90;;;;;;6170306;23;20204;-83
2023/01/31 00:33:17;;;;;;;9.50;9.20;;;3.10;99.90;;;;;;6169421;23;20271;-83
2023/01/31 00:35:46;;;;;;;9.40;9.10;;;3.10;99.90;;;;;;6169131;23;20274;-83
2023/01/31 00:38:16;;;;;;;9.33;9.03;;;3.10;99.90;;;;;;6169921;23;20203;-83
2023/01/31 00:40:53;;;;;;;9.53;9.23;;;3.10;99.90;;;;;;6168999;23;20280;-82
2023/01/31 00:43:25;;;;;;;9.30;9.00;;;3.10;99.90;;;;;;6168492;23;20758;-83
2023/01/31 00:45:57;;;;;;;9.43;9.13;;;3.10;99.90;;;;;;6169219;23;20196;-82
2023/01/31 00:48:25;;;;;;;9.50;9.20;;;3.10;99.90;;;;;;6170424;23;20196;-83
2023/01/31 00:50:52;;;;;;;9.60;9.30;;;3.10;99.90;;;;;;6177063;23;20219;-83
2023/01/31 00:53:22;;;;;;;9.27;8.97;;;3.10;99.90;;;;;;6181280;23;20188;-82
2023/01/31 00:55:50;;;;;;;9.30;9.00;;;3.10;99.90;;;;;;6181717;23;20240;-83
2023/01/31 00:58:20;;;;;;;8.90;8.70;;;3.10;99.90;;;;;;6167791;23;20239;-83
2023/01/31 01:00:53;;;;;;;9.20;8.90;;;3.10;99.90;;;;;;6165428;23;20208;-84
2023/01/31 01:03:21;;;;;;;9.23;8.93;;;3.00;99.90;;;;;;6163464;23;20208;-83
2023/01/31 01:05:48;;;;;;;9.23;8.93;;;3.00;99.90;;;;;;6164187;23;20193;-83
2023/01/31 01:08:19;;;;;;;9.60;9.30;;;3.00;99.90;;;;;;6164719;23;20675;-83
2023/01/31 01:10:49;;;;;;;9.30;9.00;;;3.00;99.90;;;;;;6164976;23;20205;-83
2023/01/31 01:13:17;;;;;;;8.90;8.70;;;2.90;99.90;;;;;;6165422;23;20193;-83
2023/01/31 01:15:47;;;;;;;9.03;8.80;;;2.90;99.90;;;;;;6164960;23;20196;-83
2023/01/31 01:18:19;;;;;;;9.20;8.90;;;2.90;99.90;;;;;;6166214;23;20234;-83
2023/01/31 01:20:46;;;;;;;8.80;8.60;;;2.90;99.90;;;;;;6166903;23;20200;-82
2023/01/31 01:23:15;;;;;;;8.87;8.67;;;2.80;99.90;;;;;;6165838;23;20219;-83
2023/01/31 01:25:45;;;;;;;9.03;8.80;;;2.90;99.90;;;;;;6167062;23;20236;-83
2023/01/31 01:28:14;;;;;;;9.13;8.83;;;2.80;99.90;;;;;;6166437;23;20224;-83
2023/01/31 01:30:44;;;;;;;8.83;8.63;;;2.80;99.90;;;;;;6166406;23;20197;-85
2023/01/31 01:33:13;;;;;;;8.67;8.47;;;2.80;99.90;;;;;;6171548;23;20196;-82
2023/01/31 01:35:51;;;;;;;8.90;8.70;;;2.80;99.90;;;;;;6179724;23;20208;-83
2023/01/31 01:38:20;;;;;;;8.70;8.50;;;2.90;99.90;;;;;;6171254;23;20192;-82
2023/01/31 01:40:48;;;;;;;8.83;8.63;;;2.80;99.90;;;;;;6169303;23;20267;-83
2023/01/31 01:43:24;;;;;;;8.80;8.60;;;2.80;99.90;;;;;;6169179;23;20279;-83
2023/01/31 01:45:55;;;;;;;8.73;8.53;;;2.80;99.90;;;;;;6167752;23;20184;-83
2023/01/31 01:48:28;;;;;;;9.00;8.80;;;2.80;99.90;;;;;;6168763;23;20189;-83
2023/01/31 01:51:02;;;;;;;8.80;8.60;;;2.80;99.90;;;;;;6167164;23;20607;-83
2023/01/31 01:53:30;;;;;;;8.47;8.27;;;2.80;99.90;;;;;;6166865;23;20588;-83
2023/01/31 01:56:04;;;;;;;8.70;8.50;;;2.70;99.90;;;;;;6167107;23;20252;-83
2023/01/31 01:58:45;;;;;;;8.57;8.37;;;2.70;99.90;;;;;;6167671;23;20215;-83
2023/01/31 02:01:15;;;;;;;8.80;8.60;;;2.70;99.90;;;;;;6166567;23;20208;-83
2023/01/31 02:03:45;;;;;;;8.90;8.70;;;2.60;99.90;;;;;;6166521;23;20231;-83
2023/01/31 02:06:14;;;;;;;8.77;8.57;;;2.60;99.90;;;;;;6166097;23;20200;-84
2023/01/31 02:08:43;;;;;;;8.60;8.40;;;2.60;99.90;;;;;;6166396;23;20219;-84
2023/01/31 02:11:19;;;;;;;8.60;8.40;;;2.60;99.90;;;;;;6166794;23;20207;-84
2023/01/31 02:13:50;;;;;;;8.70;8.50;;;2.60;99.90;;;;;;6165817;23;20192;-83
2023/01/31 02:16:18;;;;;;;9.10;8.80;;;2.60;99.90;;;;;;6166550;23;20196;-83
2023/01/31 02:18:48;;;;;;;8.80;8.60;;;2.60;99.90;;;;;;6177764;23;20196;-83
2023/01/31 02:22:12;;;;;;;8.77;8.57;;;2.60;99.90;;;;;;6170629;23;20204;-83
2023/01/31 02:25:40;;;;;;;8.73;8.53;;;2.60;99.90;;;;;;6160364;23;20208;-83
2023/01/31 02:28:48;;;;;;;9.20;8.90;;;2.60;99.90;;;;;;6180868;22;20192;-84
2023/01/31 02:32:07;;;;;;;9.10;8.80;;;2.60;99.90;;;;;;6184191;22;20200;-84
2023/01/31 02:34:46;;;;;;;8.73;8.53;;;2.60;99.90;;;;;;6183498;22;20185;-84
2023/01/31 02:37:27;;;;;;;8.60;8.40;;;2.60;99.90;;;;;;6169675;23;20196;-84
2023/01/31 02:40:10;;;;;;;8.87;8.67;;;2.60;99.90;;;;;;6164933;23;20204;-84
2023/01/31 02:42:52;;;;;;;8.83;8.63;;;2.50;99.90;;;;;;6164037;23;20196;-84
2023/01/31 02:45:28;;;;;;;8.73;8.53;;;2.50;99.90;;;;;;6163550;23;20219;-84
2023/01/31 02:48:20;;;;;;;8.60;8.40;;;2.60;99.90;;;;;;6163091;23;20282;-84
2023/01/31 02:51:03;;;;;;;8.60;8.40;;;2.50;99.90;;;;;;6163053;23;20224;-84
2023/01/31 02:53:44;;;;;;;9.20;8.90;;;2.50;99.90;;;;;;6164142;23;20192;-84
2023/01/31 02:56:18;;;;;;;8.60;8.40;;;2.50;99.90;;;;;;6164212;22;20197;-84
2023/01/31 02:58:57;;;;;;;8.60;8.40;;;2.40;99.90;;;;;;6162842;23;20189;-84
2023/01/31 03:01:34;;;;;;;8.70;8.50;;;2.40;99.90;;;;;;6163672;23;20211;-84
2023/01/31 03:04:06;;;;;;;8.90;8.70;;;2.40;99.90;;;;;;6163427;23;20235;-84
2023/01/31 03:07:13;;;;;;;8.90;8.70;;;2.40;99.90;;;;;;6163968;23;20271;-84
2023/01/31 03:09:51;;;;;;;8.90;8.70;;;2.30;99.90;;;;;;6165790;23;20212;-85
2023/01/31 03:12:53;;;;;;;9.23;8.93;;;2.40;99.90;;;;;;6166183;23;20234;-84
2023/01/31 03:18:35;;;;;;;9.20;8.90;;;2.40;99.90;;;;;;6165995;23;20188;-85
2023/01/31 03:21:11;;;;;;;9.23;8.93;;;2.40;99.90;;;;;;6167083;22;20200;-84
2023/01/31 03:24:01;;;;;;;9.23;8.93;;;2.40;99.90;;;;;;6166711;23;20207;-83
2023/01/31 03:26:29;;;;;;;8.77;8.57;;;2.40;99.90;;;;;;6167243;23;20280;-83
2023/01/31 03:29:03;;;;;;;8.70;8.50;;;2.40;99.90;;;;;;6184058;22;20184;-83
2023/01/31 03:31:37;;;;;;;8.80;8.60;;;2.40;99.90;;;;;;6169785;22;20222;-84
2023/01/31 03:34:10;;;;;;;8.60;8.40;;;2.30;99.90;;;;;;6162833;23;20247;-84
2023/01/31 03:36:46;;;;;;;8.60;8.40;;;2.30;99.90;;;;;;6174957;23;20228;-84
2023/01/31 03:39:32;;;;;;;8.53;8.33;;;2.30;99.90;;;;;;6181377;23;20204;-84
2023/01/31 03:42:09;;;;;;;8.80;8.60;;;2.30;99.90;;;;;;6178251;23;20227;-84
2023/01/31 03:44:50;;;;;;;8.60;8.40;;;2.30;99.90;;;;;;6177720;23;20184;-83
2023/01/31 03:47:27;;;;;;;8.67;8.47;;;2.30;99.90;;;;;;6183136;22;20180;-83
2023/01/31 03:49:57;;;;;;;8.43;8.23;;;2.30;99.90;;;;;;6183431;22;20204;-83
2023/01/31 03:52:35;;;;;;;8.37;8.17;;;2.30;99.90;;;;;;6184777;22;20244;-83
2023/01/31 03:55:15;;;;;;;8.50;8.30;;;2.40;99.90;;;;;;6184810;22;20215;-83
2023/01/31 03:57:44;;;;;;;8.90;8.70;;;2.40;99.90;;;;;;6184863;22;20192;-82
2023/01/31 04:00:21;;;;;;;8.80;8.60;;;2.40;99.90;;;;;;6184331;23;20199;-84
2023/01/31 04:02:53;;;;;;;8.40;8.20;;;2.40;99.90;;;;;;6185097;23;20199;-83
2023/01/31 04:05:31;;;;;;;8.30;8.10;;;2.40;99.90;;;;;;6185013;22;20176;-84
2023/01/31 04:07:59;;;;;;;8.30;8.10;;;2.40;99.90;;;;;;6184151;23;20219;-83
2023/01/31 04:10:30;;;;;;;8.27;8.07;;;2.40;99.90;;;;;;6184296;22;20200;-83
2023/01/31 04:12:57;;;;;;;8.50;8.30;;;2.40;99.90;;;;;;6184289;22;20183;-83
2023/01/31 04:15:27;;;;;;;8.33;8.13;;;2.40;99.90;;;;;;6183011;22;20188;-83
2023/01/31 04:17:55;;;;;;;8.50;8.30;;;2.40;99.90;;;;;;6183716;23;20216;-84
2023/01/31 04:20:25;;;;;;;8.60;8.40;;;2.40;99.90;;;;;;6183949;23;20196;-84
2023/01/31 04:22:54;;;;;;;8.30;8.10;;;2.40;99.90;;;;;;6184213;22;20233;-83
2023/01/31 04:25:24;;;;;;;8.43;8.23;;;2.50;99.90;;;;;;6184233;23;20219;-84
2023/01/31 04:27:53;;;;;;;8.70;8.50;;;2.50;99.90;;;;;;6183316;22;20196;-84
2023/01/31 04:30:23;;;;;;;8.50;8.30;;;2.50;99.90;;;;;;6183910;22;20190;-83
2023/01/31 04:32:51;;;;;;;8.70;8.50;;;2.40;99.90;;;;;;6183710;23;20267;-84
2023/01/31 04:35:22;;;;;;;8.47;8.27;;;2.40;99.90;;;;;;6182266;23;20220;-83
2023/01/31 04:37:51;;;;;;;8.47;8.27;;;2.40;99.90;;;;;;6182707;23;20211;-84
2023/01/31 04:40:21;;;;;;;8.70;8.50;;;2.40;99.90;;;;;;6180813;23;20224;-84
2023/01/31 04:42:56;;;;;;;8.50;8.30;;;2.40;99.90;;;;;;6170025;23;20222;-84
2023/01/31 04:48:06;;;;;;;8.67;8.47;;;2.40;99.90;;;;;;6169203;23;20193;-84
2023/01/31 04:50:37;;;;;;;8.37;8.17;;;2.40;99.90;;;;;;6168246;23;20223;-84
2023/01/31 04:53:07;;;;;;;8.30;8.10;;;2.40;99.90;;;;;;6167681;23;20259;-83
2023/01/31 04:55:35;;;;;;;8.50;8.30;;;2.40;99.90;;;;;;6167492;23;20254;-84
2023/01/31 04:58:06;;;;;;;8.20;8.00;;;2.30;99.90;;;;;;6167712;23;20196;-84
2023/01/31 05:00:34;;;;;;;8.47;8.27;;;2.30;99.90;;;;;;6167965;22;20208;-84
2023/01/31 05:03:03;;;;;;;8.60;8.40;;;2.30;99.90;;;;;;6172347;23;20215;-84
2023/01/31 05:05:35;;;;;;;8.87;8.67;;;2.40;99.90;;;;;;6168997;23;20204;-84
2023/01/31 05:08:04;;;;;;;8.90;8.70;;;2.30;99.90;;;;;;6169362;23;20239;-84
2023/01/31 05:10:34;;;;;;;8.60;8.40;;;2.40;99.90;;;;;;6169881;22;20204;-84
2023/01/31 05:13:04;;;;;;;8.47;8.27;;;2.30;99.90;;;;;;6167380;23;20234;-84
2023/01/31 05:15:32;;;;;;;8.70;8.50;;;2.20;99.90;;;;;;6167250;23;20200;-84
2023/01/31 05:18:02;;;;;;;8.63;8.43;;;2.20;99.90;;;;;;6168936;23;20226;-83
2023/01/31 05:20:39;;;;;;;8.70;8.50;;;2.20;99.90;;;;;;6172916;23;20226;-84
2023/01/31 05:23:09;;;;;;;8.57;8.37;;;2.20;99.90;;;;;;6171466;23;20193;-84
2023/01/31 05:25:39;;;;;;;8.50;8.30;;;2.30;99.90;;;;;;6170306;23;20207;-84
2023/01/31 05:28:13;;;;;;;8.40;8.20;;;2.30;99.90;;;;;;6170408;23;20195;-83
2023/01/31 05:30:40;;;;;;;9.10;8.80;;;2.30;99.90;;;;;;6170048;23;20204;-83
2023/01/31 05:33:08;;;;;;;8.87;8.67;;;2.40;99.90;;;;;;6169953;23;20223;-83
2023/01/31 05:35:38;;;;;;;9.10;8.80;;;2.40;99.90;;;;;;6177037;23;20283;-83
2023/01/31 05:38:05;;;;;;;8.90;8.70;;;2.40;99.90;;;;;;6170993;23;20196;-83
2023/01/31 05:40:35;;;;;;;8.80;8.60;;;2.40;99.90;;;;;;6169520;23;20208;-83
2023/01/31 05:43:07;;;;;;;8.57;8.37;;;2.50;99.90;;;;;;6168856;23;20737;-84
2023/01/31 05:45:34;;;;;;;8.70;8.50;;;2.50;99.90;;;;;;6167453;23;20219;-83
2023/01/31 05:48:03;;;;;;;8.77;8.57;;;2.50;99.90;;;;;;6167867;23;20204;-83
2023/01/31 06:17:52;;;;;;;8.70;8.50;;;2.80;99.90;;;;;;6014911;23;20201;-87
2023/01/31 07:28:10;;;;;;;9.67;9.37;;;2.60;99.90;;;;;;6158999;23;20204;-88
2023/01/31 07:42:19;;;;;;;9.70;9.40;;;2.60;99.90;;;;;;6073631;23;20261;-88
2023/01/31 07:44:54;;;;;;;9.73;9.43;;;2.60;99.90;;;;;;6132098;23;20264;-86
2023/01/31 07:47:30;;;;;;;9.70;9.40;;;2.50;99.90;;;;;;6183216;23;20200;-88
2023/01/31 08:04:41;;;;;;;;;;;;;;;;;;;;;
2023/01/31 08:08:31;;;;;;;;;;;;;;;;;;;;;
2023/01/31 11:52:39;;;;;;;10.10;9.80;;;4.50;99.90;;;;;;6189778;22;20208;-83
2023/01/31 11:55:09;;;;;;;9.90;9.60;;;4.30;99.90;;;;;;6200637;23;20179;-84
2023/01/31 11:57:39;;;;;;;9.53;9.23;;;4.20;99.90;;;;;;6200486;23;20211;-84
2023/01/31 12:00:26;;;;;;;9.70;9.40;;;4.00;99.90;;;;;;6202120;23;20203;-84
2023/01/31 12:03:05;;;;;;;9.90;9.60;;;4.10;99.90;;;;;;6171622;23;20192;-84
2023/01/31 12:05:42;;;;;;;9.90;9.60;;;4.00;99.90;;;;;;6171489;23;20252;-84
2023/01/31 12:08:35;;;;;;;10.10;9.80;;;3.90;99.90;;;;;;6175767;23;20203;-84
2023/01/31 12:11:08;;;;;;;9.70;9.40;;;3.90;99.90;;;;;;6175485;23;20185;-84
2023/01/31 12:13:47;;;;;;;9.77;9.47;;;3.80;99.90;;;;;;6174769;23;20231;-85
2023/01/31 12:16:21;;;;;;;9.70;9.40;;;3.80;99.90;;;;;;6168581;23;20189;-83
2023/01/31 12:19:05;;;;;;;9.67;9.37;;;3.70;99.90;;;;;;6171170;23;20215;-84
2023/01/31 12:21:55;;;;;;;9.60;9.30;;;3.70;99.90;;;;;;6173415;23;20235;-84
2023/01/31 12:24:48;;;;;;;9.60;9.30;;;3.80;99.90;;;;;;6173080;23;20192;-84
2023/01/31 12:27:34;;;;;;;9.40;9.10;;;3.80;99.90;;;;;;6172893;23;20180;-84
2023/01/31 12:30:22;;;;;;;9.80;9.50;;;3.80;99.90;;;;;;6173338;23;20189;-83
2023/01/31 12:33:09;;;;;;;9.60;9.30;;;3.80;99.90;;;;;;6174704;23;21018;-84
2023/01/31 12:35:51;;;;;;;9.50;9.20;;;3.80;99.90;;;;;;6173078;23;20196;-84
2023/01/31 12:38:51;;;;;;;9.40;9.10;;;3.80;99.90;;;;;;6174202;23;20195;-84
2023/01/31 12:41:33;;;;;;;9.17;8.87;;;3.80;99.90;;;;;;6174517;23;20205;-84
2023/01/31 12:44:29;;;;;;;9.30;9.00;;;3.70;99.90;;;;;;6175089;23;20200;-83
2023/01/31 12:47:20;;;;;;;9.20;8.90;;;3.80;99.90;;;;;;6173754;23;20203;-84
2023/01/31 12:50:17;;;;;;;9.27;8.97;;;3.80;99.90;;;;;;6172994;23;20192;-84
2023/01/31 12:53:11;;;;;;;9.10;8.80;;;3.70;99.90;;;;;;6167741;23;20204;-83
2023/01/31 12:55:49;;;;;;;9.40;9.10;;;3.70;99.90;;;;;;6174247;23;20192;-85
2023/01/31 12:58:42;;;;;;;9.07;8.80;;;3.60;99.90;;;;;;6173943;23;20192;-84
2023/01/31 13:01:14;;;;;;;9.27;8.97;;;3.60;99.90;;;;;;6175032;23;20212;-84
2023/01/31 13:04:02;;;;;;;9.03;8.77;;;3.60;99.90;;;;;;6176787;23;20197;-84
2023/01/31 13:06:35;;;;;;;9.20;8.90;;;3.60;99.90;;;;;;6175411;23;20204;-83
2023/01/31 13:09:11;;;;;;;8.90;8.70;;;3.60;99.90;;;;;;6174891;23;20192;-83
2023/01/31 13:11:45;;;;;;;8.57;8.37;;;3.60;99.90;;;;;;6173718;23;20204;-84
2023/01/31 13:14:27;;;;;;;8.80;8.60;;;3.60;99.90;;;;;;6174005;23;20251;-84
2023/01/31 13:16:59;;;;;;;9.10;8.80;;;3.60;99.90;;;;;;6174513;23;20189;-85
2023/01/31 13:19:33;;;;;;;8.70;8.50;;;3.50;99.90;;;;;;6174753;23;20197;-84
2023/01/31 13:22:08;;;;;;;9.20;8.90;;;3.50;99.90;;;;;;6174869;23;20204;-85
2023/01/31 13:24:42;;;;;;;9.30;9.00;;;3.50;99.90;;;;;;6173337;23;20212;-84
2023/01/31 13:27:18;;;;;;;9.30;9.00;;;3.50;99.90;;;;;;6173644;23;20207;-86
2023/01/31 13:29:59;;;;;;;9.20;8.90;;;3.50;99.90;;;;;;6174306;23;20211;-85
2023/01/31 13:32:37;;;;;;;9.07;8.80;;;3.50;99.90;;;;;;6176774;23;20196;-85
2023/01/31 13:35:15;;;;;;;8.87;8.67;;;3.50;99.90;;;;;;6177132;23;20192;-84
2023/01/31 13:37:46;;;;;;;9.20;8.90;;;3.50;99.90;;;;;;6176364;23;20188;-82
2023/01/31 13:40:24;;;;;;;9.27;8.97;;;3.50;99.90;;;;;;6174699;23;20223;-83
2023/01/31 13:42:52;;;;;;;9.13;8.83;;;3.50;99.90;;;;;;6174530;23;20196;-83
2023/01/31 13:45:30;;;;;;;9.17;8.90;;;3.50;99.90;;;;;;6175687;23;20216;-84
2023/01/31 13:48:09;;;;;;;9.30;9.00;;;3.50;99.90;;;;;;6174554;22;20212;-83
2023/01/31 13:50:47;;;;;;;9.20;8.90;;;3.50;99.90;;;;;;6172974;23;20220;-84
2023/01/31 13:53:21;;;;;;;8.80;8.60;;;3.50;99.90;;;;;;6172990;23;20192;-85
2023/01/31 13:55:52;;;;;;;9.23;8.93;;;3.50;99.90;;;;;;6182590;23;20188;-85
2023/01/31 13:58:25;;;;;;;9.50;9.20;;;3.50;99.90;;;;;;6169149;23;20270;-86
2023/01/31 14:01:04;;;;;;;9.30;9.00;;;3.50;99.90;;;;;;6170357;23;20200;-85
2023/01/31 14:04:10;;;;;;;9.30;9.00;;;3.60;99.90;;;;;;6169612;23;20203;-85
2023/01/31 14:10:07;;;;;;;8.87;8.67;;;3.60;99.90;;;;;;5234280;27;20523;-84
2023/01/31 14:12:46;;;;;;;8.70;8.50;;;3.50;99.90;;;;;;5191714;27;20223;-84
2023/01/31 14:15:51;;;;;;;8.83;8.63;;;3.50;99.90;;;;;;5187880;27;20229;-85
2023/01/31 14:18:46;;;;;;;9.03;8.80;;;3.50;99.90;;;;;;5196940;27;20203;-85
2023/01/31 14:25:13;;;;;;;8.50;8.30;;;3.50;99.90;;;;;;5194615;27;20252;-86
2023/01/31 14:28:02;;;;;;;8.53;8.33;;;3.60;99.90;;;;;;5201154;27;20222;-85
2023/01/31 14:30:40;;;;;;;8.80;8.60;;;3.60;99.90;;;;;;5209088;27;20279;-85
2023/01/31 14:33:25;;;;;;;8.70;8.50;;;3.60;99.90;;;;;;5207212;27;20290;-85
2023/01/31 14:36:42;;;;;;;8.27;8.07;;;3.70;99.90;;;;;;5208934;27;20238;-85
2023/01/31 14:40:02;;;;;;;8.20;8.00;;;3.70;99.90;;;;;;5189357;27;20241;-85
2023/01/31 14:43:15;;;;;;;8.47;8.27;;;3.70;99.90;;;;;;5209514;27;20222;-85
2023/01/31 14:46:19;;;;;;;8.50;8.30;;;3.70;99.90;;;;;;5183737;27;20251;-85
2023/01/31 14:49:32;;;;;;;8.30;8.10;;;3.70;99.90;;;;;;5209831;27;20238;-85
2023/01/31 14:52:25;;;;;;;8.30;8.10;;;3.80;99.90;;;;;;5199439;27;20248;-87
2023/01/31 14:55:32;;;;;;;8.57;8.37;;;3.80;99.90;;;;;;5186682;27;20233;-84
2023/01/31 14:58:11;;;;;;;8.67;8.47;;;3.80;99.90;;;;;;5195201;27;20199;-87
2023/01/31 15:00:55;;;;;;;8.50;8.30;;;3.80;99.90;;;;;;5194760;27;20223;-85
2023/01/31 15:03:27;;;;;;;8.63;8.43;;;3.80;99.90;;;;;;5197651;27;20271;-83
2023/01/31 15:06:08;;;;;;;8.40;8.20;;;3.90;99.90;;;;;;5189275;27;20342;-85
2023/01/31 15:08:46;;;;;;;8.23;8.03;;;3.90;99.90;;;;;;5185402;27;20254;-84
2023/01/31 15:11:41;;;;;;;8.60;8.40;;;3.90;99.90;;;;;;5186750;27;20291;-84
2023/01/31 15:14:31;;;;;;;8.60;8.40;;;3.90;99.90;;;;;;5188599;27;20258;-84
2023/01/31 15:17:06;;;;;;;9.00;8.80;;;3.90;99.90;;;;;;5187760;27;20219;-85
2023/01/31 15:19:47;;;;;;;8.80;8.60;;;3.90;99.90;;;;;;5182180;27;20215;-85
2023/01/31 15:22:24;;;;;;;8.77;8.57;;;3.90;99.90;;;;;;5175230;27;20257;-83
2023/01/31 15:24:57;;;;;;;8.70;8.50;;;3.90;99.90;;;;;;5179320;27;20268;-85
2023/01/31 15:27:32;;;;;;;8.37;8.17;;;3.90;99.90;;;;;;5184354;27;20211;-84
2023/01/31 15:30:10;;;;;;;8.30;8.10;;;3.90;99.90;;;;;;5184340;27;20336;-83
2023/01/31 15:32:57;;;;;;;8.20;8.00;;;4.00;99.90;;;;;;5179823;27;20227;-85
2023/01/31 15:35:34;;;;;;;8.50;8.30;;;4.00;99.90;;;;;;5180301;27;20220;-86
2023/01/31 15:38:06;;;;;;;8.40;8.20;;;4.00;99.90;;;;;;5183775;27;20199;-85
2023/01/31 15:40:34;;;;;;;8.30;8.10;;;4.00;99.90;;;;;;5183221;27;20252;-85
2023/01/31 15:43:21;;;;;;;8.20;8.00;;;4.00;99.90;;;;;;5181507;27;20219;-85
2023/01/31 15:45:52;;;;;;;7.93;7.73;;;4.00;99.90;;;;;;5181989;27;20236;-85
2023/01/31 15:48:28;;;;;;;8.60;8.40;;;4.00;99.90;;;;;;5180970;27;20230;-85
2023/01/31 15:51:00;;;;;;;8.30;8.10;;;4.10;99.90;;;;;;5180535;27;20242;-83
2023/01/31 15:53:30;;;;;;;8.10;7.90;;;4.10;99.90;;;;;;5179557;27;20253;-84
2023/01/31 15:56:05;;;;;;;8.40;8.20;;;4.10;99.90;;;;;;5172912;27;20235;-86
2023/01/31 15:58:37;;;;;;;8.53;8.33;;;4.10;99.90;;;;;;5173820;27;20279;-84
2023/01/31 16:01:06;;;;;;;8.57;8.37;;;4.10;99.90;;;;;;5173536;27;20241;-85
2023/01/31 16:03:42;;;;;;;8.67;8.47;;;4.10;99.90;;;;;;5171033;27;20235;-87
2023/01/31 16:06:27;;;;;;;8.10;7.90;;;4.10;99.90;;;;;;5171525;27;21113;-85
2023/01/31 16:08:59;;;;;;;7.83;7.63;;;4.10;99.90;;;;;;5172872;27;20266;-85
2023/01/31 16:11:29;;;;;;;7.60;7.40;;;4.10;99.90;;;;;;5173045;27;20245;-85
2023/01/31 16:14:12;;;;;;;7.57;7.37;;;4.10;99.90;;;;;;5180419;27;20215;-83
2023/01/31 16:16:41;;;;;;;7.70;7.50;;;4.10;99.90;;;;;;5198907;27;20465;-86
2023/01/31 16:22:28;;;;;;;7.57;7.37;;;4.10;99.90;;;;;;5154697;22;20242;-86
2023/01/31 16:25:02;;;;;;;7.50;7.30;;;4.10;99.90;;;;;;5098961;28;20255;-85
2023/01/31 16:27:37;;;;;;;8.13;7.93;;;4.10;99.90;;;;;;5080349;28;20233;-84
2023/01/31 16:30:07;;;;;;;7.67;7.47;;;4.10;99.90;;;;;;5092249;28;20236;-85
2023/01/31 16:32:42;;;;;;;7.50;7.30;;;4.10;99.90;;;;;;5089704;28;20233;-85
2023/01/31 16:38:22;;;;;;;8.20;8.00;;;4.10;99.90;;;;;;5102953;28;20379;-88
2023/01/31 16:40:58;;;;;;;7.87;7.67;;;4.10;99.90;;;;;;5087188;28;20226;-86
2023/01/31 16:43:36;;;;;;;8.10;7.90;;;4.10;99.90;;;;;;5087123;28;20263;-85
2023/01/31 16:46:19;;;;;;;8.30;8.10;;;4.10;99.90;;;;;;5085843;28;20234;-86
2023/01/31 16:51:51;;;;;;;8.20;8.00;;;4.00;99.90;;;;;;5086720;28;20214;-84
2023/01/31 16:54:32;;;;;;;8.10;7.90;;;4.00;99.90;;;;;;5090952;28;20288;-85
2023/01/31 17:00:07;;;;;;;8.10;7.90;;;3.90;99.90;;;;;;5090057;28;20289;-85
2023/01/31 17:03:30;;;;;;;8.10;7.90;;;3.90;99.90;;;;;;5089693;28;20241;-85
2023/01/31 17:06:10;;;;;;;8.00;7.80;;;4.00;99.90;;;;;;5089838;28;20226;-85
2023/01/31 17:08:53;;;;;;;7.97;7.77;;;3.90;99.90;;;;;;5078754;28;20241;-83
2023/01/31 17:11:28;;;;;;;8.30;8.10;;;3.90;99.90;;;;;;5089111;28;20256;-82
2023/01/31 17:13:56;;;;;;;8.30;8.10;;;4.00;99.90;;;;;;5088211;28;20222;-84
2023/01/31 17:22:08;;;;;;;8.40;8.20;;;4.00;99.90;;;;;;5081367;28;20238;-85
2023/01/31 17:25:15;;;;;;;8.33;8.13;;;4.00;99.90;;;;;;5085674;28;20245;-86
2023/01/31 17:28:07;;;;;;;8.27;8.07;;;4.00;99.90;;;;;;5086487;28;20265;-84
2023/01/31 17:30:46;;;;;;;8.00;7.80;;;4.00;99.90;;;;;;5086487;28;20261;-83
2023/01/31 17:33:17;;;;;;;7.73;7.53;;;4.00;99.90;;;;;;5086057;28;20291;-85
2023/01/31 17:35:54;;;;;;;8.20;8.00;;;4.10;99.90;;;;;;5086467;28;20234;-84
2023/01/31 17:38:31;;;;;;;8.03;7.83;;;4.10;99.90;;;;;;5084446;28;20226;-84
2023/01/31 17:41:27;;;;;;;8.00;7.80;;;4.10;99.90;;;;;;5085186;28;20279;-84
2023/01/31 17:53:27;;;;;;;8.07;7.87;;;4.10;99.90;;;;;;5080196;28;20248;-86
2023/01/31 17:58:45;;;;;;;8.33;8.13;;;4.10;99.90;;;;;;5080310;28;20233;-86
2023/01/31 18:01:33;;;;;;;8.30;8.10;;;4.10;99.90;;;;;;5082985;28;20329;-87
2023/01/31 18:04:09;;;;;;;7.90;7.70;;;4.10;99.90;;;;;;5081565;28;20234;-87
2023/01/31 18:07:07;;;;;;;8.50;8.30;;;4.10;99.90;;;;;;5082719;28;20244;-86
2023/01/31 18:09:44;;;;;;;8.43;8.23;;;4.10;99.90;;;;;;5083979;28;20237;-86
2023/01/31 18:12:23;;;;;;;8.30;8.10;;;4.10;99.90;;;;;;5082129;28;20226;-85
2023/01/31 18:14:55;;;;;;;8.20;8.00;;;4.00;99.90;;;;;;5081595;28;20230;-86
2023/01/31 18:17:39;;;;;;;8.40;8.20;;;4.00;99.90;;;;;;5082548;28;20289;-86
2023/01/31 18:20:18;;;;;;;8.20;8.00;;;4.10;99.90;;;;;;5082045;28;20226;-86
2023/01/31 18:23:05;;;;;;;8.40;8.20;;;4.00;99.90;;;;;;5082534;28;20253;-87
2023/01/31 18:25:35;;;;;;;8.20;8.00;;;4.10;99.90;;;;;;5081710;28;20230;-87
2023/01/31 18:28:39;;;;;;;8.50;8.30;;;4.10;99.90;;;;;;5080152;28;20260;-88
2023/01/31 18:34:24;;;;;;;8.10;7.90;;;4.10;99.90;;;;;;5080888;28;20301;-86
2023/01/31 18:36:51;;;;;;;7.60;7.40;;;4.10;99.90;;;;;;5084221;28;20233;-85
2023/01/31 18:39:37;;;;;;;8.00;7.80;;;4.20;99.90;;;;;;5086295;28;20254;-85
2023/01/31 18:45:02;;;;;;;7.93;7.73;;;4.20;99.90;;;;;;5082105;28;20230;-85
2023/01/31 18:47:31;;;;;;;8.10;7.90;;;4.20;99.90;;;;;;5085799;28;20230;-85
2023/01/31 18:50:10;;;;;;;8.57;8.37;;;4.10;99.90;;;;;;5085927;28;20222;-84
2023/01/31 18:52:42;;;;;;;8.20;8.00;;;4.10;99.90;;;;;;5089745;28;20246;-86
2023/01/31 18:55:10;;;;;;;8.30;8.10;;;4.10;99.90;;;;;;5093534;28;20233;-85
2023/01/31 18:57:40;;;;;;;8.23;8.03;;;4.10;99.90;;;;;;5102307;28;20242;-85
2023/01/31 19:00:09;;;;;;;8.10;7.90;;;4.10;99.90;;;;;;5101964;28;20218;-85
2023/01/31 19:02:57;;;;;;;8.10;7.90;;;4.10;99.90;;;;;;5094186;28;20230;-85
2023/01/31 19:05:28;;;;;;;8.20;8.00;;;4.10;99.90;;;;;;5088869;28;20234;-85
2023/01/31 19:08:02;;;;;;;8.17;7.97;;;4.10;99.90;;;;;;5087749;28;20253;-86
2023/01/31 19:10:35;;;;;;;8.30;8.10;;;4.10;99.90;;;;;;5086277;28;20264;-85
2023/01/31 19:13:03;;;;;;;8.30;8.10;;;4.10;99.90;;;;;;5086205;28;20276;-87
2023/01/31 19:15:32;;;;;;;8.33;8.13;;;4.10;99.90;;;;;;5085889;28;20222;-86
2023/01/31 19:18:02;;;;;;;8.40;8.20;;;4.10;99.90;;;;;;5086179;28;20233;-86
2023/01/31 19:23:18;;;;;;;8.60;8.40;;;4.10;99.90;;;;;;5091300;28;20218;-87
2023/01/31 19:25:47;;;;;;;8.70;8.50;;;4.10;99.90;;;;;;5092109;28;20253;-86
2023/01/31 19:28:21;;;;;;;8.60;8.40;;;4.10;99.90;;;;;;5097027;28;20237;-87
2023/01/31 19:30:55;;;;;;;8.60;8.40;;;4.10;99.90;;;;;;5096129;28;20282;-87
2023/01/31 19:33:25;;;;;;;8.40;8.20;;;4.10;99.90;;;;;;5084243;28;20218;-86
2023/01/31 19:35:57;;;;;;;8.10;7.90;;;4.10;99.90;;;;;;5085454;28;20226;-86
2023/01/31 19:38:27;;;;;;;7.97;7.77;;;4.10;99.90;;;;;;5084271;28;20253;-87
2023/01/31 19:43:51;;;;;;;7.70;7.50;;;4.10;99.90;;;;;;5081908;28;20226;-86
2023/01/31 19:46:27;;;;;;;7.90;7.70;;;4.10;99.90;;;;;;5083747;28;20294;-87
2023/01/31 19:48:57;;;;;;;8.00;7.80;;;4.00;99.90;;;;;;5083588;28;20227;-87
2023/01/31 19:51:36;;;;;;;8.07;7.87;;;4.00;99.90;;;;;;5083549;28;20288;-88
2023/01/31 19:54:06;;;;;;;8.07;7.87;;;4.00;99.90;;;;;;5082802;28;20280;-88
2023/01/31 19:56:35;;;;;;;8.00;7.80;;;4.00;99.90;;;;;;5083693;28;20234;-86
2023/01/31 19:59:05;;;;;;;8.50;8.30;;;4.00;99.90;;;;;;5083662;28;20281;-87
2023/01/31 20:01:34;;;;;;;8.30;8.10;;;4.00;99.90;;;;;;5082842;28;20232;-87
2023/01/31 20:04:11;;;;;;;8.53;8.33;;;4.00;99.90;;;;;;5083304;28;20286;-87
2023/01/31 20:06:52;;;;;;;8.30;8.10;;;4.00;99.90;;;;;;5083151;28;20230;-86
2023/01/31 20:12:29;;;;;;;8.40;8.20;;;4.10;99.90;;;;;;5110164;28;20244;-86
2023/01/31 20:14:58;;;;;;;8.53;8.33;;;4.10;99.90;;;;;;5109106;28;20217;-84
2023/01/31 20:20:10;;;;;;;8.50;8.30;;;4.10;99.90;;;;;;5107556;28;20237;-86
2023/01/31 20:22:47;;;;;;;8.50;8.30;;;4.10;99.90;;;;;;5105212;28;20289;-85
2023/01/31 20:25:17;;;;;;;8.70;8.50;;;4.20;99.90;;;;;;5105690;28;20228;-85
2023/01/31 20:27:46;;;;;;;8.50;8.30;;;4.20;99.90;;;;;;5104547;28;20325;-85
2023/01/31 20:30:19;;;;;;;8.23;8.03;;;4.20;99.90;;;;;;5065041;28;20239;-86
2023/01/31 20:32:50;;;;;;;8.70;8.50;;;4.20;99.90;;;;;;5082018;28;20241;-88
2023/01/31 20:38:14;;;;;;;8.87;8.67;;;4.20;99.90;;;;;;5068280;28;20238;-87